sensor_id;sensor_type;location;lat;lon;timestamp;P1;durP1;ratioP1;P2;durP2;ratioP2
4486;SDS011;2256;48.740;9.106;2023-07-24T00:02:20;10.17;;;5.50;;
4486;SDS011;2256;48.740;9.106;2023-07-24T00:04:47;11.50;;;5.00;;
4486;SDS011;2256;48.740;9.106;2023-07-24T00:07:13;13.97;;;5.63;;
4486;SDS011;2256;48.740;9.106;2023-07-24T00:09:42;13.80;;;6.40;;
4486;SDS011;2256;48.740;9.106;2023-07-24T00:12:08;13.90;;;6.27;;
4486;SDS011;2256;48.740;9.106;2023-07-24T00:14:34;9.80;;;5.03;;
4486;SDS011;2256;48.740;9.106;2023-07-24T00:17:01;15.97;;;6.10;;
4486;SDS011;2256;48.740;9.106;2023-07-24T00:19:27;17.67;;;5.83;;
4486;SDS011;2256;48.740;9.106;2023-07-24T00:21:54;14.03;;;5.70;;
4486;SDS011;2256;48.740;9.106;2023-07-24T00:24:21;11.30;;;4.53;;
4486;SDS011;2256;48.740;9.106;2023-07-24T00:26:49;12.50;;;5.37;;
4486;SDS011;2256;48.740;9.106;2023-07-24T00:29:15;12.70;;;6.23;;
4486;SDS011;2256;48.740;9.106;2023-07-24T00:31:42;11.83;;;5.60;;
4486;SDS011;2256;48.740;9.106;2023-07-24T00:34:09;14.83;;;6.80;;
4486;SDS011;2256;48.740;9.106;2023-07-24T00:36:37;16.90;;;6.17;;
4486;SDS011;2256;48.740;9.106;2023-07-24T00:39:03;13.20;;;5.97;;
4486;SDS011;2256;48.740;9.106;2023-07-24T00:41:30;11.37;;;5.33;;
4486;SDS011;2256;48.740;9.106;2023-07-24T00:43:58;10.63;;;5.37;;
4486;SDS011;2256;48.740;9.106;2023-07-24T00:46:25;15.50;;;6.50;;
4486;SDS011;2256;48.740;9.106;2023-07-24T00:48:51;14.17;;;6.70;;
4486;SDS011;2256;48.740;9.106;2023-07-24T00:51:19;15.10;;;6.23;;
4486;SDS011;2256;48.740;9.106;2023-07-24T00:53:46;13.50;;;6.20;;
4486;SDS011;2256;48.740;9.106;2023-07-24T00:56:12;16.20;;;6.30;;
4486;SDS011;2256;48.740;9.106;2023-07-24T00:58:39;17.50;;;5.93;;
4486;SDS011;2256;48.740;9.106;2023-07-24T01:01:07;10.30;;;5.57;;
4486;SDS011;2256;48.740;9.106;2023-07-24T01:03:36;12.90;;;6.33;;
4486;SDS011;2256;48.740;9.106;2023-07-24T01:06:04;14.20;;;5.90;;
4486;SDS011;2256;48.740;9.106;2023-07-24T01:08:31;10.27;;;5.57;;
4486;SDS011;2256;48.740;9.106;2023-07-24T01:11:00;12.73;;;5.90;;
4486;SDS011;2256;48.740;9.106;2023-07-24T01:13:30;16.57;;;7.50;;
4486;SDS011;2256;48.740;9.106;2023-07-24T01:16:03;14.43;;;6.13;;
4486;SDS011;2256;48.740;9.106;2023-07-24T01:18:36;18.93;;;6.70;;
4486;SDS011;2256;48.740;9.106;2023-07-24T01:21:05;12.47;;;5.60;;
4486;SDS011;2256;48.740;9.106;2023-07-24T01:23:38;15.83;;;6.20;;
4486;SDS011;2256;48.740;9.106;2023-07-24T01:26:12;13.63;;;6.63;;
4486;SDS011;2256;48.740;9.106;2023-07-24T01:28:39;14.03;;;6.10;;
4486;SDS011;2256;48.740;9.106;2023-07-24T01:31:06;14.13;;;5.60;;
4486;SDS011;2256;48.740;9.106;2023-07-24T01:33:33;16.00;;;6.30;;
4486;SDS011;2256;48.740;9.106;2023-07-24T01:36:02;8.60;;;5.23;;
4486;SDS011;2256;48.740;9.106;2023-07-24T01:38:31;14.60;;;6.50;;
4486;SDS011;2256;48.740;9.106;2023-07-24T01:41:00;11.80;;;5.70;;
4486;SDS011;2256;48.740;9.106;2023-07-24T01:43:29;14.87;;;6.60;;
4486;SDS011;2256;48.740;9.106;2023-07-24T01:45:57;14.17;;;5.67;;
4486;SDS011;2256;48.740;9.106;2023-07-24T01:48:23;15.30;;;6.73;;
4486;SDS011;2256;48.740;9.106;2023-07-24T01:50:50;14.00;;;6.30;;
4486;SDS011;2256;48.740;9.106;2023-07-24T01:53:17;17.37;;;6.17;;
4486;SDS011;2256;48.740;9.106;2023-07-24T01:55:44;14.13;;;5.97;;
4486;SDS011;2256;48.740;9.106;2023-07-24T01:58:10;12.80;;;6.13;;
4486;SDS011;2256;48.740;9.106;2023-07-24T02:00:38;10.43;;;4.83;;
4486;SDS011;2256;48.740;9.106;2023-07-24T02:03:05;11.30;;;6.00;;
4486;SDS011;2256;48.740;9.106;2023-07-24T02:05:32;11.27;;;5.70;;
4486;SDS011;2256;48.740;9.106;2023-07-24T02:07:59;24.63;;;6.00;;
4486;SDS011;2256;48.740;9.106;2023-07-24T02:10:26;12.40;;;5.73;;
4486;SDS011;2256;48.740;9.106;2023-07-24T02:12:52;14.30;;;5.83;;
4486;SDS011;2256;48.740;9.106;2023-07-24T02:15:19;13.50;;;5.83;;
4486;SDS011;2256;48.740;9.106;2023-07-24T02:17:47;17.57;;;6.57;;
4486;SDS011;2256;48.740;9.106;2023-07-24T02:20:14;15.37;;;6.43;;
4486;SDS011;2256;48.740;9.106;2023-07-24T02:22:40;11.20;;;6.40;;
4486;SDS011;2256;48.740;9.106;2023-07-24T02:25:07;11.50;;;5.03;;
4486;SDS011;2256;48.740;9.106;2023-07-24T02:27:34;15.63;;;5.80;;
4486;SDS011;2256;48.740;9.106;2023-07-24T02:30:02;15.53;;;6.60;;
4486;SDS011;2256;48.740;9.106;2023-07-24T02:32:29;8.93;;;5.17;;
4486;SDS011;2256;48.740;9.106;2023-07-24T02:34:58;12.07;;;5.50;;
4486;SDS011;2256;48.740;9.106;2023-07-24T02:37:25;10.50;;;5.20;;
4486;SDS011;2256;48.740;9.106;2023-07-24T02:39:52;15.40;;;5.53;;
4486;SDS011;2256;48.740;9.106;2023-07-24T02:42:18;11.40;;;5.40;;
4486;SDS011;2256;48.740;9.106;2023-07-24T02:44:45;15.50;;;5.63;;
4486;SDS011;2256;48.740;9.106;2023-07-24T02:47:12;13.83;;;5.40;;
4486;SDS011;2256;48.740;9.106;2023-07-24T02:49:38;12.47;;;6.30;;
4486;SDS011;2256;48.740;9.106;2023-07-24T02:52:07;16.73;;;6.37;;
4486;SDS011;2256;48.740;9.106;2023-07-24T02:54:33;12.20;;;6.03;;
4486;SDS011;2256;48.740;9.106;2023-07-24T02:57:00;11.73;;;5.60;;
4486;SDS011;2256;48.740;9.106;2023-07-24T02:59:27;13.73;;;5.10;;
4486;SDS011;2256;48.740;9.106;2023-07-24T03:01:56;14.00;;;6.30;;
4486;SDS011;2256;48.740;9.106;2023-07-24T03:04:23;14.13;;;6.30;;
4486;SDS011;2256;48.740;9.106;2023-07-24T03:06:50;11.77;;;5.43;;
4486;SDS011;2256;48.740;9.106;2023-07-24T03:09:18;12.20;;;5.80;;
4486;SDS011;2256;48.740;9.106;2023-07-24T03:11:45;13.43;;;6.27;;
4486;SDS011;2256;48.740;9.106;2023-07-24T03:14:11;17.50;;;7.70;;
4486;SDS011;2256;48.740;9.106;2023-07-24T03:16:38;12.20;;;5.40;;
4486;SDS011;2256;48.740;9.106;2023-07-24T03:19:05;11.80;;;5.73;;
4486;SDS011;2256;48.740;9.106;2023-07-24T03:21:31;12.40;;;5.87;;
4486;SDS011;2256;48.740;9.106;2023-07-24T03:23:58;12.07;;;6.10;;
4486;SDS011;2256;48.740;9.106;2023-07-24T03:26:26;14.87;;;6.03;;
4486;SDS011;2256;48.740;9.106;2023-07-24T03:28:53;11.83;;;5.57;;
4486;SDS011;2256;48.740;9.106;2023-07-24T03:31:19;12.30;;;5.90;;
4486;SDS011;2256;48.740;9.106;2023-07-24T03:33:46;12.30;;;5.70;;
4486;SDS011;2256;48.740;9.106;2023-07-24T03:36:12;14.07;;;5.70;;
4486;SDS011;2256;48.740;9.106;2023-07-24T03:38:39;15.23;;;6.00;;
4486;SDS011;2256;48.740;9.106;2023-07-24T03:41:06;14.60;;;6.20;;
4486;SDS011;2256;48.740;9.106;2023-07-24T03:43:34;12.30;;;5.57;;
4486;SDS011;2256;48.740;9.106;2023-07-24T03:46:01;15.33;;;5.93;;
4486;SDS011;2256;48.740;9.106;2023-07-24T03:48:28;11.17;;;5.07;;
4486;SDS011;2256;48.740;9.106;2023-07-24T03:50:57;13.20;;;6.20;;
4486;SDS011;2256;48.740;9.106;2023-07-24T03:53:25;16.37;;;7.07;;
4486;SDS011;2256;48.740;9.106;2023-07-24T03:55:52;19.93;;;6.20;;
4486;SDS011;2256;48.740;9.106;2023-07-24T03:58:19;17.37;;;6.93;;
4486;SDS011;2256;48.740;9.106;2023-07-24T04:00:48;13.43;;;6.30;;
4486;SDS011;2256;48.740;9.106;2023-07-24T04:03:15;12.27;;;5.80;;
4486;SDS011;2256;48.740;9.106;2023-07-24T04:05:42;16.80;;;5.93;;
4486;SDS011;2256;48.740;9.106;2023-07-24T04:08:09;14.73;;;6.20;;
4486;SDS011;2256;48.740;9.106;2023-07-24T04:10:35;15.67;;;6.87;;
4486;SDS011;2256;48.740;9.106;2023-07-24T04:13:02;14.77;;;5.53;;
4486;SDS011;2256;48.740;9.106;2023-07-24T04:15:29;16.93;;;5.97;;
4486;SDS011;2256;48.740;9.106;2023-07-24T04:17:57;17.30;;;5.93;;
4486;SDS011;2256;48.740;9.106;2023-07-24T04:20:24;11.13;;;5.67;;
4486;SDS011;2256;48.740;9.106;2023-07-24T04:22:50;15.80;;;6.47;;
4486;SDS011;2256;48.740;9.106;2023-07-24T04:25:17;12.27;;;5.40;;
4486;SDS011;2256;48.740;9.106;2023-07-24T04:27:44;14.80;;;5.30;;
4486;SDS011;2256;48.740;9.106;2023-07-24T04:30:11;10.50;;;5.70;;
4486;SDS011;2256;48.740;9.106;2023-07-24T04:32:38;10.67;;;5.67;;
4486;SDS011;2256;48.740;9.106;2023-07-24T04:35:06;16.27;;;6.10;;
4486;SDS011;2256;48.740;9.106;2023-07-24T04:37:33;16.43;;;6.00;;
4486;SDS011;2256;48.740;9.106;2023-07-24T04:40:00;10.73;;;5.80;;
4486;SDS011;2256;48.740;9.106;2023-07-24T04:42:27;16.07;;;5.63;;
4486;SDS011;2256;48.740;9.106;2023-07-24T04:44:54;11.43;;;5.87;;
4486;SDS011;2256;48.740;9.106;2023-07-24T04:47:20;11.57;;;5.73;;
4486;SDS011;2256;48.740;9.106;2023-07-24T04:49:47;13.93;;;6.07;;
4486;SDS011;2256;48.740;9.106;2023-07-24T04:52:15;17.03;;;6.47;;
4486;SDS011;2256;48.740;9.106;2023-07-24T04:54:42;13.63;;;6.43;;
4486;SDS011;2256;48.740;9.106;2023-07-24T04:57:08;13.20;;;6.10;;
4486;SDS011;2256;48.740;9.106;2023-07-24T04:59:35;16.90;;;6.83;;
4486;SDS011;2256;48.740;9.106;2023-07-24T05:02:02;12.90;;;5.70;;
4486;SDS011;2256;48.740;9.106;2023-07-24T05:04:29;23.43;;;6.70;;
4486;SDS011;2256;48.740;9.106;2023-07-24T05:06:56;13.70;;;5.70;;
4486;SDS011;2256;48.740;9.106;2023-07-24T05:09:24;14.23;;;5.90;;
4486;SDS011;2256;48.740;9.106;2023-07-24T05:11:50;11.70;;;5.70;;
4486;SDS011;2256;48.740;9.106;2023-07-24T05:14:17;15.30;;;5.27;;
4486;SDS011;2256;48.740;9.106;2023-07-24T05:16:44;11.30;;;6.03;;
4486;SDS011;2256;48.740;9.106;2023-07-24T05:19:10;12.23;;;5.70;;
4486;SDS011;2256;48.740;9.106;2023-07-24T05:21:37;15.53;;;5.83;;
4486;SDS011;2256;48.740;9.106;2023-07-24T05:24:04;13.20;;;5.27;;
4486;SDS011;2256;48.740;9.106;2023-07-24T05:26:32;14.00;;;6.03;;
4486;SDS011;2256;48.740;9.106;2023-07-24T05:28:59;12.40;;;5.87;;
4486;SDS011;2256;48.740;9.106;2023-07-24T05:31:25;9.30;;;5.53;;
4486;SDS011;2256;48.740;9.106;2023-07-24T05:33:52;14.80;;;6.17;;
4486;SDS011;2256;48.740;9.106;2023-07-24T05:36:19;13.20;;;5.73;;
4486;SDS011;2256;48.740;9.106;2023-07-24T05:38:45;12.70;;;5.30;;
4486;SDS011;2256;48.740;9.106;2023-07-24T05:41:12;15.40;;;5.97;;
4486;SDS011;2256;48.740;9.106;2023-07-24T05:43:40;15.87;;;6.37;;
4486;SDS011;2256;48.740;9.106;2023-07-24T05:46:07;10.80;;;5.50;;
4486;SDS011;2256;48.740;9.106;2023-07-24T05:48:33;11.13;;;5.60;;
4486;SDS011;2256;48.740;9.106;2023-07-24T05:51:00;19.90;;;7.20;;
4486;SDS011;2256;48.740;9.106;2023-07-24T05:53:27;16.97;;;6.33;;
4486;SDS011;2256;48.740;9.106;2023-07-24T05:55:57;14.80;;;6.67;;
4486;SDS011;2256;48.740;9.106;2023-07-24T05:58:24;17.07;;;6.47;;
4486;SDS011;2256;48.740;9.106;2023-07-24T06:00:53;18.13;;;6.67;;
4486;SDS011;2256;48.740;9.106;2023-07-24T06:03:20;11.47;;;5.93;;
4486;SDS011;2256;48.740;9.106;2023-07-24T06:05:50;13.10;;;6.43;;
4486;SDS011;2256;48.740;9.106;2023-07-24T06:08:17;14.20;;;6.30;;
4486;SDS011;2256;48.740;9.106;2023-07-24T06:10:45;14.27;;;6.37;;
4486;SDS011;2256;48.740;9.106;2023-07-24T06:13:12;11.70;;;6.40;;
4486;SDS011;2256;48.740;9.106;2023-07-24T06:15:39;15.30;;;6.23;;
4486;SDS011;2256;48.740;9.106;2023-07-24T06:18:07;13.13;;;5.30;;
4486;SDS011;2256;48.740;9.106;2023-07-24T06:20:34;15.47;;;6.53;;
4486;SDS011;2256;48.740;9.106;2023-07-24T06:23:01;15.23;;;7.00;;
4486;SDS011;2256;48.740;9.106;2023-07-24T06:25:28;12.07;;;5.73;;
4486;SDS011;2256;48.740;9.106;2023-07-24T06:27:55;16.40;;;6.80;;
4486;SDS011;2256;48.740;9.106;2023-07-24T06:30:22;12.40;;;5.67;;
4486;SDS011;2256;48.740;9.106;2023-07-24T06:32:49;10.90;;;5.77;;
4486;SDS011;2256;48.740;9.106;2023-07-24T06:35:17;16.50;;;5.73;;
4486;SDS011;2256;48.740;9.106;2023-07-24T06:37:44;10.63;;;5.67;;
4486;SDS011;2256;48.740;9.106;2023-07-24T06:40:10;10.47;;;6.00;;
4486;SDS011;2256;48.740;9.106;2023-07-24T06:42:37;15.20;;;7.03;;
4486;SDS011;2256;48.740;9.106;2023-07-24T06:45:05;14.73;;;6.10;;
4486;SDS011;2256;48.740;9.106;2023-07-24T06:47:32;16.30;;;6.63;;
4486;SDS011;2256;48.740;9.106;2023-07-24T06:49:59;15.30;;;7.30;;
4486;SDS011;2256;48.740;9.106;2023-07-24T06:52:28;15.50;;;6.57;;
4486;SDS011;2256;48.740;9.106;2023-07-24T06:54:55;15.83;;;6.90;;
4486;SDS011;2256;48.740;9.106;2023-07-24T06:57:23;12.60;;;6.00;;
4486;SDS011;2256;48.740;9.106;2023-07-24T06:59:49;17.30;;;7.03;;
4486;SDS011;2256;48.740;9.106;2023-07-24T07:02:16;13.70;;;6.50;;
4486;SDS011;2256;48.740;9.106;2023-07-24T07:04:43;17.53;;;7.20;;
4486;SDS011;2256;48.740;9.106;2023-07-24T07:07:10;11.87;;;6.47;;
4486;SDS011;2256;48.740;9.106;2023-07-24T07:09:38;13.10;;;6.30;;
4486;SDS011;2256;48.740;9.106;2023-07-24T07:12:05;11.20;;;5.70;;
4486;SDS011;2256;48.740;9.106;2023-07-24T07:14:32;18.10;;;7.47;;
4486;SDS011;2256;48.740;9.106;2023-07-24T07:16:59;11.53;;;6.00;;
4486;SDS011;2256;48.740;9.106;2023-07-24T07:19:26;13.20;;;6.83;;
4486;SDS011;2256;48.740;9.106;2023-07-24T07:21:53;14.20;;;6.37;;
4486;SDS011;2256;48.740;9.106;2023-07-24T07:24:20;12.40;;;6.27;;
4486;SDS011;2256;48.740;9.106;2023-07-24T07:26:48;17.40;;;5.83;;
4486;SDS011;2256;48.740;9.106;2023-07-24T07:29:14;14.13;;;5.80;;
4486;SDS011;2256;48.740;9.106;2023-07-24T07:31:41;12.50;;;6.50;;
4486;SDS011;2256;48.740;9.106;2023-07-24T07:34:08;11.83;;;6.03;;
4486;SDS011;2256;48.740;9.106;2023-07-24T07:36:34;20.20;;;6.00;;
4486;SDS011;2256;48.740;9.106;2023-07-24T07:39:01;15.40;;;6.23;;
4486;SDS011;2256;48.740;9.106;2023-07-24T07:41:28;11.07;;;6.23;;
4486;SDS011;2256;48.740;9.106;2023-07-24T07:43:56;13.10;;;5.70;;
4486;SDS011;2256;48.740;9.106;2023-07-24T07:46:23;13.47;;;6.07;;
4486;SDS011;2256;48.740;9.106;2023-07-24T07:48:50;15.17;;;6.57;;
4486;SDS011;2256;48.740;9.106;2023-07-24T07:51:17;16.43;;;6.17;;
4486;SDS011;2256;48.740;9.106;2023-07-24T07:53:44;13.60;;;6.50;;
4486;SDS011;2256;48.740;9.106;2023-07-24T07:56:10;12.37;;;5.73;;
4486;SDS011;2256;48.740;9.106;2023-07-24T07:58:37;14.13;;;6.73;;
4486;SDS011;2256;48.740;9.106;2023-07-24T08:01:05;14.50;;;6.40;;
4486;SDS011;2256;48.740;9.106;2023-07-24T08:03:32;16.40;;;6.43;;
4486;SDS011;2256;48.740;9.106;2023-07-24T08:06:00;14.27;;;6.90;;
4486;SDS011;2256;48.740;9.106;2023-07-24T08:08:27;16.60;;;6.80;;
4486;SDS011;2256;48.740;9.106;2023-07-24T08:10:53;15.07;;;7.30;;
4486;SDS011;2256;48.740;9.106;2023-07-24T08:13:20;14.13;;;6.57;;
4486;SDS011;2256;48.740;9.106;2023-07-24T08:15:47;14.43;;;7.20;;
4486;SDS011;2256;48.740;9.106;2023-07-24T08:18:16;13.27;;;6.13;;
4486;SDS011;2256;48.740;9.106;2023-07-24T08:20:42;16.53;;;6.43;;
4486;SDS011;2256;48.740;9.106;2023-07-24T08:23:09;12.30;;;5.63;;
4486;SDS011;2256;48.740;9.106;2023-07-24T08:25:36;16.23;;;6.47;;
4486;SDS011;2256;48.740;9.106;2023-07-24T08:28:02;20.40;;;6.90;;
4486;SDS011;2256;48.740;9.106;2023-07-24T08:30:29;14.97;;;6.30;;
4486;SDS011;2256;48.740;9.106;2023-07-24T08:32:56;23.50;;;6.33;;
4486;SDS011;2256;48.740;9.106;2023-07-24T08:35:25;15.50;;;6.40;;
4486;SDS011;2256;48.740;9.106;2023-07-24T08:37:52;15.80;;;6.80;;
4486;SDS011;2256;48.740;9.106;2023-07-24T08:40:18;18.17;;;6.93;;
4486;SDS011;2256;48.740;9.106;2023-07-24T08:42:45;21.73;;;7.93;;
4486;SDS011;2256;48.740;9.106;2023-07-24T08:45:15;15.93;;;6.57;;
4486;SDS011;2256;48.740;9.106;2023-07-24T08:47:43;19.70;;;5.83;;
4486;SDS011;2256;48.740;9.106;2023-07-24T08:50:10;12.70;;;5.63;;
4486;SDS011;2256;48.740;9.106;2023-07-24T08:52:39;11.90;;;5.73;;
4486;SDS011;2256;48.740;9.106;2023-07-24T08:55:07;17.63;;;6.40;;
4486;SDS011;2256;48.740;9.106;2023-07-24T08:57:36;14.50;;;6.33;;
4486;SDS011;2256;48.740;9.106;2023-07-24T09:00:03;9.53;;;4.50;;
4486;SDS011;2256;48.740;9.106;2023-07-24T09:02:31;12.87;;;6.30;;
4486;SDS011;2256;48.740;9.106;2023-07-24T09:04:58;10.33;;;5.67;;
4486;SDS011;2256;48.740;9.106;2023-07-24T09:07:25;12.00;;;5.70;;
4486;SDS011;2256;48.740;9.106;2023-07-24T09:09:53;13.63;;;6.27;;
4486;SDS011;2256;48.740;9.106;2023-07-24T09:12:21;11.67;;;5.63;;
4486;SDS011;2256;48.740;9.106;2023-07-24T09:14:48;14.73;;;6.30;;
4486;SDS011;2256;48.740;9.106;2023-07-24T09:17:15;18.03;;;6.17;;
4486;SDS011;2256;48.740;9.106;2023-07-24T09:19:42;10.03;;;5.23;;
4486;SDS011;2256;48.740;9.106;2023-07-24T09:22:10;12.13;;;5.97;;
4486;SDS011;2256;48.740;9.106;2023-07-24T09:24:48;32.97;;;5.10;;
4486;SDS011;2256;48.740;9.106;2023-07-24T09:27:17;12.60;;;5.30;;
4486;SDS011;2256;48.740;9.106;2023-07-24T09:29:44;9.03;;;4.73;;
4486;SDS011;2256;48.740;9.106;2023-07-24T09:32:18;9.83;;;4.30;;
4486;SDS011;2256;48.740;9.106;2023-07-24T09:34:45;7.83;;;3.80;;
4486;SDS011;2256;48.740;9.106;2023-07-24T09:37:22;9.57;;;4.43;;
4486;SDS011;2256;48.740;9.106;2023-07-24T09:39:52;14.13;;;4.17;;
4486;SDS011;2256;48.740;9.106;2023-07-24T09:42:28;7.37;;;4.13;;
4486;SDS011;2256;48.740;9.106;2023-07-24T09:44:55;10.03;;;4.30;;
4486;SDS011;2256;48.740;9.106;2023-07-24T09:47:22;7.53;;;4.03;;
4486;SDS011;2256;48.740;9.106;2023-07-24T09:49:58;9.23;;;4.76;;
4486;SDS011;2256;48.740;9.106;2023-07-24T09:52:27;7.87;;;4.67;;
4486;SDS011;2256;48.740;9.106;2023-07-24T09:54:55;7.20;;;4.30;;
4486;SDS011;2256;48.740;9.106;2023-07-24T09:57:28;13.10;;;5.10;;
4486;SDS011;2256;48.740;9.106;2023-07-24T09:59:56;9.80;;;4.70;;
4486;SDS011;2256;48.740;9.106;2023-07-24T10:02:23;11.07;;;5.13;;
4486;SDS011;2256;48.740;9.106;2023-07-24T10:04:51;13.00;;;5.23;;
4486;SDS011;2256;48.740;9.106;2023-07-24T10:07:19;9.60;;;4.50;;
4486;SDS011;2256;48.740;9.106;2023-07-24T10:09:46;7.07;;;4.93;;
4486;SDS011;2256;48.740;9.106;2023-07-24T10:12:14;10.30;;;4.70;;
4486;SDS011;2256;48.740;9.106;2023-07-24T10:14:43;12.73;;;4.80;;
4486;SDS011;2256;48.740;9.106;2023-07-24T10:17:11;9.70;;;4.80;;
4486;SDS011;2256;48.740;9.106;2023-07-24T10:19:39;8.50;;;5.17;;
4486;SDS011;2256;48.740;9.106;2023-07-24T10:22:08;12.43;;;4.90;;
4486;SDS011;2256;48.740;9.106;2023-07-24T10:24:35;9.67;;;4.70;;
4486;SDS011;2256;48.740;9.106;2023-07-24T10:27:03;8.27;;;5.53;;
4486;SDS011;2256;48.740;9.106;2023-07-24T10:29:33;6.70;;;4.87;;
4486;SDS011;2256;48.740;9.106;2023-07-24T10:32:02;13.10;;;5.93;;
4486;SDS011;2256;48.740;9.106;2023-07-24T10:34:36;22.40;;;6.33;;
4486;SDS011;2256;48.740;9.106;2023-07-24T10:37:06;14.30;;;5.77;;
4486;SDS011;2256;48.740;9.106;2023-07-24T10:39:38;14.27;;;6.30;;
4486;SDS011;2256;48.740;9.106;2023-07-24T10:42:06;13.87;;;6.30;;
4486;SDS011;2256;48.740;9.106;2023-07-24T10:44:34;16.80;;;7.10;;
4486;SDS011;2256;48.740;9.106;2023-07-24T10:47:02;10.37;;;4.97;;
4486;SDS011;2256;48.740;9.106;2023-07-24T10:49:29;9.67;;;5.43;;
4486;SDS011;2256;48.740;9.106;2023-07-24T10:51:56;14.00;;;5.90;;
4486;SDS011;2256;48.740;9.106;2023-07-24T10:54:22;15.70;;;5.87;;
4486;SDS011;2256;48.740;9.106;2023-07-24T10:56:49;10.60;;;4.90;;
4486;SDS011;2256;48.740;9.106;2023-07-24T10:59:23;12.00;;;4.90;;
4486;SDS011;2256;48.740;9.106;2023-07-24T11:01:49;11.90;;;5.57;;
4486;SDS011;2256;48.740;9.106;2023-07-24T11:04:17;12.97;;;5.73;;
4486;SDS011;2256;48.740;9.106;2023-07-24T11:06:44;16.87;;;6.90;;
4486;SDS011;2256;48.740;9.106;2023-07-24T11:09:11;12.50;;;5.60;;
4486;SDS011;2256;48.740;9.106;2023-07-24T11:11:38;10.90;;;5.53;;
4486;SDS011;2256;48.740;9.106;2023-07-24T11:14:04;12.77;;;6.70;;
4486;SDS011;2256;48.740;9.106;2023-07-24T11:16:31;12.10;;;6.10;;
4486;SDS011;2256;48.740;9.106;2023-07-24T11:18:58;12.50;;;6.10;;
4486;SDS011;2256;48.740;9.106;2023-07-24T11:21:26;9.60;;;5.27;;
4486;SDS011;2256;48.740;9.106;2023-07-24T11:23:54;13.90;;;5.53;;
4486;SDS011;2256;48.740;9.106;2023-07-24T11:26:22;10.07;;;5.20;;
4486;SDS011;2256;48.740;9.106;2023-07-24T11:28:50;9.90;;;5.83;;
4486;SDS011;2256;48.740;9.106;2023-07-24T11:31:18;11.00;;;6.00;;
4486;SDS011;2256;48.740;9.106;2023-07-24T11:33:46;13.43;;;6.27;;
4486;SDS011;2256;48.740;9.106;2023-07-24T11:36:13;11.60;;;5.90;;
4486;SDS011;2256;48.740;9.106;2023-07-24T11:38:42;17.83;;;5.77;;
4486;SDS011;2256;48.740;9.106;2023-07-24T11:41:10;11.60;;;5.70;;
4486;SDS011;2256;48.740;9.106;2023-07-24T11:43:44;11.67;;;5.90;;
4486;SDS011;2256;48.740;9.106;2023-07-24T11:46:21;9.90;;;5.40;;
4486;SDS011;2256;48.740;9.106;2023-07-24T11:48:49;12.70;;;5.73;;
4486;SDS011;2256;48.740;9.106;2023-07-24T11:51:18;10.83;;;5.70;;
4486;SDS011;2256;48.740;9.106;2023-07-24T11:53:46;12.63;;;5.43;;
4486;SDS011;2256;48.740;9.106;2023-07-24T11:56:13;13.50;;;5.37;;
4486;SDS011;2256;48.740;9.106;2023-07-24T11:58:41;8.80;;;4.80;;
4486;SDS011;2256;48.740;9.106;2023-07-24T12:01:08;10.90;;;4.60;;
4486;SDS011;2256;48.740;9.106;2023-07-24T12:03:34;10.00;;;5.33;;
4486;SDS011;2256;48.740;9.106;2023-07-24T12:06:01;15.83;;;5.37;;
4486;SDS011;2256;48.740;9.106;2023-07-24T12:08:29;15.00;;;5.63;;
4486;SDS011;2256;48.740;9.106;2023-07-24T12:10:58;11.10;;;5.93;;
4486;SDS011;2256;48.740;9.106;2023-07-24T12:13:25;9.30;;;5.40;;
4486;SDS011;2256;48.740;9.106;2023-07-24T12:15:52;10.80;;;4.80;;
4486;SDS011;2256;48.740;9.106;2023-07-24T12:18:19;11.00;;;5.30;;
4486;SDS011;2256;48.740;9.106;2023-07-24T12:20:45;16.07;;;5.97;;
4486;SDS011;2256;48.740;9.106;2023-07-24T12:23:12;10.83;;;5.10;;
4486;SDS011;2256;48.740;9.106;2023-07-24T12:25:39;11.50;;;5.20;;
4486;SDS011;2256;48.740;9.106;2023-07-24T12:28:07;10.93;;;4.87;;
4486;SDS011;2256;48.740;9.106;2023-07-24T12:30:34;9.80;;;5.20;;
4486;SDS011;2256;48.740;9.106;2023-07-24T12:33:00;6.23;;;4.23;;
4486;SDS011;2256;48.740;9.106;2023-07-24T12:35:27;8.17;;;4.87;;
4486;SDS011;2256;48.740;9.106;2023-07-24T12:37:54;11.07;;;4.43;;
4486;SDS011;2256;48.740;9.106;2023-07-24T12:40:20;9.53;;;5.43;;
4486;SDS011;2256;48.740;9.106;2023-07-24T12:42:47;12.63;;;5.07;;
4486;SDS011;2256;48.740;9.106;2023-07-24T12:45:15;9.93;;;4.90;;
4486;SDS011;2256;48.740;9.106;2023-07-24T12:47:42;12.63;;;5.20;;
4486;SDS011;2256;48.740;9.106;2023-07-24T12:50:09;8.50;;;4.90;;
4486;SDS011;2256;48.740;9.106;2023-07-24T12:52:36;13.20;;;4.70;;
4486;SDS011;2256;48.740;9.106;2023-07-24T12:55:03;10.27;;;4.67;;
4486;SDS011;2256;48.740;9.106;2023-07-24T12:57:30;10.23;;;4.50;;
4486;SDS011;2256;48.740;9.106;2023-07-24T12:59:57;8.47;;;4.90;;
4486;SDS011;2256;48.740;9.106;2023-07-24T13:02:25;7.40;;;4.23;;
4486;SDS011;2256;48.740;9.106;2023-07-24T13:04:52;9.13;;;4.37;;
4486;SDS011;2256;48.740;9.106;2023-07-24T13:07:18;8.43;;;3.87;;
4486;SDS011;2256;48.740;9.106;2023-07-24T13:09:45;8.70;;;4.20;;
4486;SDS011;2256;48.740;9.106;2023-07-24T13:12:12;10.87;;;3.80;;
4486;SDS011;2256;48.740;9.106;2023-07-24T13:14:38;8.30;;;4.80;;
4486;SDS011;2256;48.740;9.106;2023-07-24T13:17:05;7.13;;;4.20;;
4486;SDS011;2256;48.740;9.106;2023-07-24T13:19:33;8.40;;;4.03;;
4486;SDS011;2256;48.740;9.106;2023-07-24T13:22:00;8.23;;;4.20;;
4486;SDS011;2256;48.740;9.106;2023-07-24T13:24:27;6.50;;;4.03;;
4486;SDS011;2256;48.740;9.106;2023-07-24T13:26:53;6.80;;;4.03;;
4486;SDS011;2256;48.740;9.106;2023-07-24T13:29:20;7.00;;;4.03;;
4486;SDS011;2256;48.740;9.106;2023-07-24T13:31:47;9.03;;;4.50;;
4486;SDS011;2256;48.740;9.106;2023-07-24T13:34:16;7.77;;;4.10;;
4486;SDS011;2256;48.740;9.106;2023-07-24T13:36:46;5.27;;;3.50;;
4486;SDS011;2256;48.740;9.106;2023-07-24T13:39:13;6.23;;;3.33;;
4486;SDS011;2256;48.740;9.106;2023-07-24T13:41:39;6.63;;;4.07;;
4486;SDS011;2256;48.740;9.106;2023-07-24T13:44:06;7.33;;;4.00;;
4486;SDS011;2256;48.740;9.106;2023-07-24T13:46:33;6.40;;;3.80;;
4486;SDS011;2256;48.740;9.106;2023-07-24T13:49:00;7.83;;;4.40;;
4486;SDS011;2256;48.740;9.106;2023-07-24T13:51:26;8.23;;;4.27;;
4486;SDS011;2256;48.740;9.106;2023-07-24T13:53:55;8.50;;;4.10;;
4486;SDS011;2256;48.740;9.106;2023-07-24T13:56:22;5.27;;;3.90;;
4486;SDS011;2256;48.740;9.106;2023-07-24T13:58:48;7.47;;;4.07;;
4486;SDS011;2256;48.740;9.106;2023-07-24T14:01:15;8.00;;;4.30;;
4486;SDS011;2256;48.740;9.106;2023-07-24T14:03:42;5.40;;;3.37;;
4486;SDS011;2256;48.740;9.106;2023-07-24T14:06:08;7.33;;;4.53;;
4486;SDS011;2256;48.740;9.106;2023-07-24T14:08:35;6.63;;;3.47;;
4486;SDS011;2256;48.740;9.106;2023-07-24T14:11:03;6.73;;;3.37;;
4486;SDS011;2256;48.740;9.106;2023-07-24T14:13:30;4.87;;;3.67;;
4486;SDS011;2256;48.740;9.106;2023-07-24T14:15:57;7.20;;;3.37;;
4486;SDS011;2256;48.740;9.106;2023-07-24T14:18:24;7.07;;;3.87;;
4486;SDS011;2256;48.740;9.106;2023-07-24T14:20:50;5.63;;;3.50;;
4486;SDS011;2256;48.740;9.106;2023-07-24T14:23:19;7.93;;;3.60;;
4486;SDS011;2256;48.740;9.106;2023-07-24T14:25:46;3.83;;;3.00;;
4486;SDS011;2256;48.740;9.106;2023-07-24T14:28:14;10.23;;;3.30;;
4486;SDS011;2256;48.740;9.106;2023-07-24T14:30:41;7.80;;;3.80;;
4486;SDS011;2256;48.740;9.106;2023-07-24T14:33:08;5.87;;;3.13;;
4486;SDS011;2256;48.740;9.106;2023-07-24T14:35:35;6.83;;;3.40;;
4486;SDS011;2256;48.740;9.106;2023-07-24T14:38:02;7.03;;;3.60;;
4486;SDS011;2256;48.740;9.106;2023-07-24T14:40:28;4.77;;;3.10;;
4486;SDS011;2256;48.740;9.106;2023-07-24T14:42:56;11.83;;;3.60;;
4486;SDS011;2256;48.740;9.106;2023-07-24T14:45:24;4.40;;;2.93;;
4486;SDS011;2256;48.740;9.106;2023-07-24T14:47:51;6.73;;;3.73;;
4486;SDS011;2256;48.740;9.106;2023-07-24T14:50:17;5.53;;;3.23;;
4486;SDS011;2256;48.740;9.106;2023-07-24T14:52:44;7.10;;;3.70;;
4486;SDS011;2256;48.740;9.106;2023-07-24T14:55:11;6.70;;;3.40;;
4486;SDS011;2256;48.740;9.106;2023-07-24T14:57:37;5.13;;;3.70;;
4486;SDS011;2256;48.740;9.106;2023-07-24T15:00:06;6.87;;;3.63;;
4486;SDS011;2256;48.740;9.106;2023-07-24T15:02:35;4.90;;;3.10;;
4486;SDS011;2256;48.740;9.106;2023-07-24T15:05:01;7.80;;;3.80;;
4486;SDS011;2256;48.740;9.106;2023-07-24T15:07:28;5.57;;;3.27;;